Time;durP1;ratioP1;P1;durP2;ratioP2;P2;SDS_P1;SDS_P2;PMS_P1;PMS_P2;Temp;Humidity;BMP_temperature;BMP_pressure;BME280_temperature;BME280_humidity;BME280_pressure;Samples;Min_cycle;Max_cycle;Signal;HPM_P1;HPM_P2
2022/09/26 00:01:34;;;;;;;15.80;6.80;;;10.50;99.90;;;;;;4994088;28;20069;-48
2022/09/26 00:04:14;;;;;;;13.18;6.75;;;10.50;99.90;;;;;;4993989;28;20030;-46
2022/09/26 00:06:40;;;;;;;11.77;6.57;;;10.50;99.90;;;;;;4994303;28;20556;-44
2022/09/26 00:09:06;;;;;;;10.27;6.72;;;10.50;99.90;;;;;;4976810;28;20037;-48
2022/09/26 00:11:32;;;;;;;12.93;6.78;;;10.40;99.90;;;;;;4994209;28;20026;-45
2022/09/26 00:14:02;;;;;;;13.27;7.28;;;10.40;99.90;;;;;;4975892;28;20045;-44
2022/09/26 00:16:27;;;;;;;15.32;7.07;;;10.40;99.90;;;;;;4994445;28;20042;-45
2022/09/26 00:18:54;;;;;;;13.88;7.82;;;10.40;99.90;;;;;;4993975;28;20018;-52
2022/09/26 00:21:21;;;;;;;20.85;7.72;;;10.30;99.90;;;;;;4994235;28;20030;-45
2022/09/26 00:23:47;;;;;;;11.88;7.07;;;10.30;99.90;;;;;;4993384;28;20037;-43
2022/09/26 00:26:14;;;;;;;12.10;6.72;;;10.30;99.90;;;;;;4993962;28;20033;-47
2022/09/26 00:28:40;;;;;;;11.73;7.28;;;10.20;99.90;;;;;;4993790;28;20074;-50
2022/09/26 00:31:11;;;;;;;11.52;7.25;;;10.20;99.90;;;;;;4993983;28;20026;-45
2022/09/26 00:33:37;;;;;;;10.35;7.43;;;10.30;99.90;;;;;;5021584;23;20037;-42
2022/09/26 00:36:03;;;;;;;9.23;6.97;;;10.30;99.90;;;;;;5012964;28;20113;-43
2022/09/26 00:38:29;;;;;;;18.40;10.38;;;10.30;99.90;;;;;;5012057;28;20030;-43
2022/09/26 00:40:54;;;;;;;15.80;10.85;;;10.30;99.90;;;;;;5013517;28;20393;-46
2022/09/26 00:43:27;;;;;;;14.35;9.23;;;10.20;99.90;;;;;;5013069;28;20030;-40
2022/09/26 00:45:56;;;;;;;13.00;7.72;;;10.20;99.90;;;;;;5013274;28;20041;-42
2022/09/26 00:48:22;;;;;;;13.05;8.00;;;10.10;99.90;;;;;;5013130;28;20040;-47
2022/09/26 00:50:48;;;;;;;10.50;7.45;;;10.00;99.90;;;;;;5013258;28;20488;-44
2022/09/26 00:53:21;;;;;;;14.30;7.05;;;10.00;99.90;;;;;;5013097;28;20042;-43
2022/09/26 00:55:53;;;;;;;14.05;7.55;;;10.00;99.90;;;;;;5011774;28;20028;-44
2022/09/26 00:58:29;;;;;;;12.75;7.50;;;10.00;99.90;;;;;;5012938;28;20497;-49
2022/09/26 01:00:56;;;;;;;11.02;7.13;;;10.00;99.90;;;;;;5013247;28;20107;-47
2022/09/26 01:03:23;;;;;;;15.10;8.27;;;10.00;99.90;;;;;;5012422;28;20026;-47
2022/09/26 01:05:49;;;;;;;15.48;8.90;;;10.00;99.90;;;;;;5012885;28;20022;-43
2022/09/26 01:08:19;;;;;;;10.70;7.53;;;10.00;99.90;;;;;;5011605;28;20434;-47
2022/09/26 01:10:45;;;;;;;14.05;8.23;;;10.00;99.90;;;;;;5012140;28;20434;-44
2022/09/26 01:13:11;;;;;;;14.20;8.40;;;10.00;99.90;;;;;;5012460;28;20025;-45
2022/09/26 01:15:37;;;;;;;13.68;8.90;;;9.90;99.90;;;;;;5012742;28;20072;-43
2022/09/26 01:18:03;;;;;;;14.70;8.65;;;9.90;99.90;;;;;;5012767;28;20445;-47
2022/09/26 01:21:01;;;;;;;10.75;8.05;;;9.90;99.90;;;;;;5012783;28;20105;-44
2022/09/26 01:23:38;;;;;;;12.93;7.85;;;9.90;99.90;;;;;;5012391;28;20029;-43
2022/09/26 01:26:25;;;;;;;14.80;9.32;;;9.90;99.90;;;;;;5012567;28;20022;-46
2022/09/26 01:29:02;;;;;;;20.05;8.48;;;9.90;99.90;;;;;;5012337;28;20022;-47
2022/09/26 01:31:37;;;;;;;9.98;7.97;;;9.90;99.90;;;;;;5012609;28;20169;-45
2022/09/26 01:34:12;;;;;;;11.43;7.75;;;9.90;99.90;;;;;;5012128;28;20428;-47
2022/09/26 01:36:51;;;;;;;14.77;8.48;;;9.80;99.90;;;;;;5012368;28;20075;-43
2022/09/26 01:39:31;;;;;;;13.07;8.32;;;9.70;99.90;;;;;;5012362;28;20033;-45
2022/09/26 01:42:22;;;;;;;14.93;9.05;;;9.70;99.90;;;;;;5012181;28;20064;-41
2022/09/26 01:45:21;;;;;;;14.43;9.13;;;9.70;99.90;;;;;;5010691;28;20429;-46
2022/09/26 01:48:07;;;;;;;11.82;8.68;;;9.60;99.90;;;;;;4990065;28;20403;-46
2022/09/26 01:50:40;;;;;;;14.68;8.13;;;9.60;99.90;;;;;;5012482;28;20405;-44
2022/09/26 01:53:11;;;;;;;12.07;9.23;;;9.60;99.90;;;;;;5011840;28;20030;-46
2022/09/26 01:55:52;;;;;;;14.32;8.88;;;9.60;99.90;;;;;;5011862;28;20444;-50
2022/09/26 01:58:26;;;;;;;9.85;8.57;;;9.60;99.90;;;;;;5012034;28;20053;-44
2022/09/26 02:00:58;;;;;;;15.85;8.93;;;9.60;99.90;;;;;;5012102;28;20030;-49
2022/09/26 02:03:28;;;;;;;15.88;8.60;;;9.60;99.90;;;;;;5011901;28;20025;-42
2022/09/26 02:06:02;;;;;;;18.20;9.18;;;9.60;99.90;;;;;;5010725;28;20104;-46
2022/09/26 02:08:41;;;;;;;10.32;7.72;;;9.60;99.90;;;;;;5011979;28;20097;-44
2022/09/26 02:11:16;;;;;;;11.27;8.45;;;9.50;99.90;;;;;;5011837;28;20028;-47
2022/09/26 02:13:58;;;;;;;12.45;8.07;;;9.60;99.90;;;;;;5011606;28;20026;-42
2022/09/26 02:16:47;;;;;;;14.48;8.63;;;9.60;99.90;;;;;;5011885;28;20044;-44
2022/09/26 02:19:45;;;;;;;16.60;8.77;;;9.60;99.90;;;;;;5005600;28;20451;-43
2022/09/26 02:22:10;;;;;;;12.68;9.48;;;9.50;99.90;;;;;;5011261;28;20057;-44
2022/09/26 02:24:36;;;;;;;12.82;7.57;;;9.50;99.90;;;;;;5011707;28;20021;-43
2022/09/26 02:27:02;;;;;;;21.08;8.88;;;9.50;99.90;;;;;;5011921;28;20097;-43
2022/09/26 02:29:28;;;;;;;12.10;8.73;;;9.50;99.90;;;;;;5011807;28;20026;-43
2022/09/26 02:31:58;;;;;;;18.35;9.30;;;9.50;99.90;;;;;;5011710;28;20032;-46
2022/09/26 02:34:24;;;;;;;16.73;9.93;;;9.40;99.90;;;;;;5011419;28;20034;-47
2022/09/26 02:36:50;;;;;;;15.98;9.18;;;9.40;99.90;;;;;;5012093;28;20044;-46
2022/09/26 02:39:16;;;;;;;15.35;9.25;;;9.40;99.90;;;;;;5011586;28;20500;-43
2022/09/26 02:41:47;;;;;;;18.98;8.98;;;9.40;99.90;;;;;;5011915;28;20108;-43
2022/09/26 02:44:34;;;;;;;18.45;10.73;;;9.30;99.90;;;;;;5012343;28;20056;-44
2022/09/26 02:47:09;;;;;;;16.52;10.00;;;9.40;99.90;;;;;;5011576;28;20030;-43
2022/09/26 02:49:46;;;;;;;14.10;10.23;;;9.30;99.90;;;;;;5011690;28;20121;-47
2022/09/26 02:52:18;;;;;;;16.73;9.57;;;9.30;99.90;;;;;;5011485;28;20273;-43
2022/09/26 02:54:59;;;;;;;13.25;10.38;;;9.40;99.90;;;;;;5011391;28;20481;-42
2022/09/26 02:57:52;;;;;;;17.60;9.55;;;9.40;99.90;;;;;;5012006;28;20026;-43
2022/09/26 03:00:22;;;;;;;23.13;9.70;;;9.30;99.90;;;;;;5011835;28;20077;-45
2022/09/26 03:03:19;;;;;;;11.60;8.32;;;9.30;99.90;;;;;;5011483;28;20033;-46
2022/09/26 03:05:44;;;;;;;;;;;9.30;99.90;;;;;;5010592;28;20030;-48
2022/09/26 03:08:13;;;;;;;;;;;9.30;99.90;;;;;;5010491;28;20441;-45
2022/09/26 03:10:40;;;;;;;14.80;8.73;;;9.20;99.90;;;;;;5011562;28;19937;-44
2022/09/26 03:13:13;;;;;;;16.05;8.98;;;9.20;99.90;;;;;;5011072;28;20034;-46
2022/09/26 03:15:43;;;;;;;12.40;9.35;;;9.20;99.90;;;;;;5011253;28;20022;-48
2022/09/26 03:18:15;;;;;;;15.68;9.02;;;9.20;99.90;;;;;;5011264;28;20022;-43
2022/09/26 03:20:40;;;;;;;13.00;8.25;;;9.20;99.90;;;;;;5011340;28;20493;-45
2022/09/26 03:23:06;;;;;;;19.80;9.85;;;9.20;99.90;;;;;;5010883;28;20037;-45
2022/09/26 03:25:32;;;;;;;12.90;9.00;;;9.20;99.90;;;;;;5011248;28;20079;-45
2022/09/26 03:28:01;;;;;;;18.60;9.55;;;9.10;99.90;;;;;;5011234;28;20030;-44
2022/09/26 03:30:28;;;;;;;18.27;9.75;;;9.20;99.90;;;;;;5011017;28;20037;-43
2022/09/26 03:32:54;;;;;;;17.25;9.65;;;9.20;99.90;;;;;;5010751;28;20018;-43
2022/09/26 03:35:20;;;;;;;12.40;10.35;;;9.20;99.90;;;;;;5013491;28;20105;-43
2022/09/26 03:37:46;;;;;;;15.27;9.73;;;9.20;99.90;;;;;;5014888;28;20149;-47
2022/09/26 03:40:12;;;;;;;14.80;10.23;;;9.20;99.90;;;;;;5014589;28;20022;-43
2022/09/26 03:42:38;;;;;;;16.13;10.43;;;9.20;99.90;;;;;;5014482;28;20021;-46
2022/09/26 03:45:07;;;;;;;19.60;10.40;;;9.20;99.90;;;;;;5014610;28;20369;-43
2022/09/26 03:47:33;;;;;;;15.18;10.32;;;9.20;99.90;;;;;;5014507;28;20026;-44
2022/09/26 03:49:59;;;;;;;18.17;10.95;;;9.20;99.90;;;;;;5014607;28;20076;-45
2022/09/26 03:52:25;;;;;;;19.20;10.95;;;9.20;99.90;;;;;;5014004;28;20017;-41
2022/09/26 03:54:51;;;;;;;13.73;11.55;;;9.30;99.90;;;;;;5014172;28;20036;-43
2022/09/26 03:57:17;;;;;;;20.95;11.88;;;9.20;99.90;;;;;;5014612;28;20416;-42
2022/09/26 03:59:42;;;;;;;22.58;12.02;;;9.10;99.90;;;;;;5014400;28;20030;-45
2022/09/26 04:02:08;;;;;;;20.65;12.05;;;9.10;99.90;;;;;;5013739;28;20024;-46
2022/09/26 04:04:35;;;;;;;17.10;12.00;;;9.00;99.90;;;;;;5014038;28;20029;-50
2022/09/26 04:07:00;;;;;;;21.17;12.40;;;9.00;99.90;;;;;;5013947;28;20105;-47
2022/09/26 04:09:26;;;;;;;13.23;11.70;;;9.00;99.90;;;;;;5013750;28;20058;-44
2022/09/26 04:11:52;;;;;;;24.92;12.52;;;9.00;99.90;;;;;;5013761;28;20022;-40
2022/09/26 04:14:19;;;;;;;17.33;12.18;;;9.00;99.90;;;;;;5013991;28;20022;-42
2022/09/26 04:16:45;;;;;;;20.92;12.98;;;9.00;99.90;;;;;;5013877;28;20026;-44
2022/09/26 04:19:12;;;;;;;19.20;12.13;;;9.00;99.90;;;;;;5013851;28;20124;-47
2022/09/26 04:21:38;;;;;;;20.50;12.48;;;9.00;99.90;;;;;;5013707;28;20111;-46
2022/09/26 04:24:05;;;;;;;18.52;11.43;;;9.00;99.90;;;;;;5013349;28;20030;-44
2022/09/26 04:26:30;;;;;;;14.35;11.13;;;9.00;99.90;;;;;;5013660;28;20033;-44
2022/09/26 04:28:57;;;;;;;17.88;12.05;;;9.00;99.90;;;;;;5013610;28;20030;-43
2022/09/26 04:31:26;;;;;;;18.80;12.18;;;9.00;99.90;;;;;;5013493;28;20026;-42
2022/09/26 04:33:53;;;;;;;19.92;12.35;;;8.90;99.90;;;;;;5013100;28;20466;-50
2022/09/26 04:36:19;;;;;;;14.73;11.95;;;8.90;99.90;;;;;;5013354;28;20346;-42
2022/09/26 04:38:45;;;;;;;17.70;13.27;;;8.90;99.90;;;;;;5013314;28;20026;-43
2022/09/26 04:41:13;;;;;;;19.63;13.02;;;8.90;99.90;;;;;;5013371;28;20142;-43
2022/09/26 04:43:39;;;;;;;17.70;12.43;;;8.90;99.90;;;;;;5013343;28;20026;-49
2022/09/26 04:46:12;;;;;;;17.40;12.20;;;8.90;99.90;;;;;;5012972;28;20040;-45
2022/09/26 04:48:38;;;;;;;22.85;13.35;;;9.00;99.90;;;;;;5013348;28;20025;-42
2022/09/26 04:51:09;;;;;;;15.25;11.90;;;9.00;99.90;;;;;;5011835;28;20026;-42
2022/09/26 04:53:35;;;;;;;17.95;13.15;;;9.00;99.90;;;;;;5012936;28;20022;-43
2022/09/26 04:56:01;;;;;;;21.60;12.52;;;9.00;99.90;;;;;;5012612;28;20041;-45
2022/09/26 04:58:27;;;;;;;17.83;13.02;;;9.10;99.90;;;;;;5011798;28;20033;-45
2022/09/26 05:00:52;;;;;;;17.65;11.30;;;9.10;99.90;;;;;;5012986;28;20482;-44
2022/09/26 05:03:19;;;;;;;16.10;11.48;;;9.10;99.90;;;;;;5012639;28;20058;-47
2022/09/26 05:05:46;;;;;;;14.15;11.80;;;9.20;99.90;;;;;;5012909;28;20353;-47
2022/09/26 05:08:13;;;;;;;16.63;11.70;;;9.20;99.90;;;;;;5012814;28;20018;-46
2022/09/26 05:10:39;;;;;;;17.67;12.10;;;9.20;99.90;;;;;;5012931;28;20022;-44
2022/09/26 05:13:06;;;;;;;20.83;12.80;;;9.20;99.90;;;;;;5012542;28;20050;-43
2022/09/26 05:15:33;;;;;;;15.65;11.68;;;9.20;99.90;;;;;;5012760;28;20029;-46
2022/09/26 05:17:59;;;;;;;22.58;12.85;;;9.20;99.90;;;;;;5012530;28;20036;-43
2022/09/26 05:20:30;;;;;;;20.60;11.05;;;9.20;99.90;;;;;;5012761;28;20037;-43
2022/09/26 05:22:57;;;;;;;19.15;11.73;;;9.20;99.90;;;;;;5012435;28;20441;-43
2022/09/26 05:28:07;;;;;;;14.33;10.80;;;9.20;99.90;;;;;;5012761;28;20076;-44
2022/09/26 05:30:36;;;;;;;19.38;11.55;;;9.20;99.90;;;;;;5012585;28;20025;-46
2022/09/26 05:33:01;;;;;;;19.77;12.65;;;9.30;99.90;;;;;;5011896;28;20030;-44
2022/09/26 05:35:27;;;;;;;21.15;12.68;;;9.30;99.90;;;;;;5012416;28;20026;-51
2022/09/26 05:38:03;;;;;;;16.40;10.75;;;9.40;99.90;;;;;;5012215;28;20030;-49
2022/09/26 05:43:13;;;;;;;15.75;10.75;;;9.50;99.90;;;;;;5012407;28;20112;-45
2022/09/26 05:45:38;;;;;;;17.90;11.25;;;9.50;99.90;;;;;;5012252;28;20037;-44
2022/09/26 05:48:04;;;;;;;19.02;11.60;;;9.60;99.90;;;;;;5012175;28;20105;-43
2022/09/26 05:50:31;;;;;;;16.88;11.55;;;9.60;99.90;;;;;;5012244;28;20101;-44
2022/09/26 05:52:58;;;;;;;18.08;13.82;;;9.70;99.90;;;;;;5011821;28;20033;-46
2022/09/26 05:55:27;;;;;;;14.45;10.35;;;9.70;99.90;;;;;;5011775;28;20489;-46
2022/09/26 05:57:55;;;;;;;14.23;11.68;;;9.70;99.90;;;;;;5010210;28;20030;-43
2022/09/26 06:00:21;;;;;;;16.48;11.20;;;9.70;99.90;;;;;;5011954;28;20033;-43
2022/09/26 06:02:56;;;;;;;19.13;12.38;;;9.80;99.90;;;;;;5011588;28;20421;-47
2022/09/26 06:05:25;;;;;;;14.25;10.30;;;9.90;99.90;;;;;;5012058;28;20036;-46
2022/09/26 06:07:51;;;;;;;18.20;11.57;;;9.90;99.90;;;;;;5012100;28;20510;-46
2022/09/26 06:10:17;;;;;;;19.80;11.25;;;9.90;99.90;;;;;;5012049;28;20425;-41
2022/09/26 06:12:43;;;;;;;13.65;11.55;;;10.00;99.90;;;;;;5011755;28;20485;-41
2022/09/26 06:15:09;;;;;;;19.00;11.80;;;10.10;99.90;;;;;;5012014;28;20105;-48
2022/09/26 06:17:35;;;;;;;19.80;11.27;;;10.10;99.90;;;;;;5012263;28;20088;-44
2022/09/26 06:20:01;;;;;;;19.65;11.00;;;10.00;99.90;;;;;;5011708;28;20060;-42
2022/09/26 06:22:27;;;;;;;17.02;10.85;;;10.00;99.90;;;;;;5011606;28;20446;-38
2022/09/26 06:24:53;;;;;;;15.30;10.70;;;10.00;99.90;;;;;;5011793;28;20026;-37
2022/09/26 06:27:19;;;;;;;15.98;10.45;;;10.00;99.90;;;;;;5011962;28;20187;-43
2022/09/26 06:29:44;;;;;;;18.38;11.52;;;10.10;99.90;;;;;;5012334;28;20041;-44
2022/09/26 06:32:10;;;;;;;14.30;9.57;;;10.10;99.90;;;;;;5012036;28;20061;-44
2022/09/26 06:34:35;;;;;;;16.92;10.43;;;10.10;99.90;;;;;;5025691;23;20057;-49
2022/09/26 06:37:01;;;;;;;13.60;9.50;;;10.20;99.90;;;;;;5010377;28;20026;-44
2022/09/26 06:39:34;;;;;;;13.40;8.55;;;10.40;99.90;;;;;;5011715;28;20026;-44
2022/09/26 06:42:01;;;;;;;12.35;8.75;;;10.60;99.90;;;;;;5011444;28;20026;-46
2022/09/26 06:44:27;;;;;;;10.27;7.40;;;10.80;99.90;;;;;;5011307;28;20056;-45
2022/09/26 06:46:52;;;;;;;10.02;7.28;;;11.00;99.90;;;;;;5011554;28;20045;-44
2022/09/26 06:49:18;;;;;;;14.52;11.45;;;11.50;99.90;;;;;;5011393;28;20072;-44
2022/09/26 06:51:47;;;;;;;12.07;8.50;;;12.10;99.90;;;;;;5011536;28;20371;-46
2022/09/26 06:54:13;;;;;;;8.65;7.35;;;12.70;99.90;;;;;;5011146;28;20060;-47
2022/09/26 06:56:38;;;;;;;9.27;5.97;;;13.40;99.90;;;;;;5011095;28;20061;-45
2022/09/26 06:59:04;;;;;;;6.97;5.50;;;14.00;99.90;;;;;;5011168;28;20045;-43
2022/09/26 07:01:29;;;;;;;5.60;4.45;;;14.70;99.90;;;;;;5011462;28;20147;-44
2022/09/26 07:03:55;;;;;;;11.48;6.20;;;15.20;99.90;;;;;;5010938;28;20486;-44
2022/09/26 07:06:21;;;;;;;6.90;5.28;;;15.50;99.90;;;;;;5011553;28;20325;-44
2022/09/26 07:08:46;;;;;;;15.57;5.60;;;15.90;99.90;;;;;;5011449;28;20370;-43
2022/09/26 07:11:12;;;;;;;8.45;5.95;;;16.00;99.90;;;;;;5015077;28;20029;-44
2022/09/26 07:13:38;;;;;;;7.85;5.22;;;16.10;99.90;;;;;;5014569;28;20025;-42
2022/09/26 07:16:04;;;;;;;8.63;5.00;;;16.20;99.90;;;;;;5015339;28;20393;-42
2022/09/26 07:18:29;;;;;;;9.30;5.53;;;16.80;99.90;;;;;;5014839;28;20490;-43
2022/09/26 07:20:55;;;;;;;8.13;4.95;;;17.70;99.90;;;;;;5015001;28;20341;-41
2022/09/26 07:23:21;;;;;;;8.10;4.70;;;18.20;99.90;;;;;;5014506;28;20103;-42
2022/09/26 07:25:47;;;;;;;7.70;4.65;;;18.40;99.90;;;;;;5014670;28;20033;-42
2022/09/26 07:28:12;;;;;;;7.15;4.35;;;18.30;99.90;;;;;;5014635;28;20022;-44
2022/09/26 07:30:38;;;;;;;7.38;4.90;;;18.30;99.90;;;;;;5014794;28;20033;-41
2022/09/26 07:33:04;;;;;;;12.23;4.95;;;18.30;99.90;;;;;;5014225;28;20025;-44
2022/09/26 07:35:32;;;;;;;9.30;4.43;;;18.40;99.90;;;;;;5014627;28;20037;-44
2022/09/26 07:37:57;;;;;;;6.82;5.75;;;18.90;99.90;;;;;;5014224;28;20076;-43
2022/09/26 07:40:24;;;;;;;9.23;5.18;;;18.50;99.90;;;;;;5014614;28;20026;-43
2022/09/26 07:42:51;;;;;;;5.70;5.13;;;17.50;99.90;;;;;;5014201;28;20041;-42
2022/09/26 07:50:09;;;;;;;11.02;5.55;;;16.80;99.90;;;;;;5014466;28;20022;-47
2022/09/26 07:50:49;;;;;;;11.95;5.50;;;15.40;99.90;;;;;;5014518;28;20033;-46
2022/09/26 07:53:15;;;;;;;10.60;7.00;;;14.70;99.90;;;;;;5013895;28;20022;-42
2022/09/26 07:56:04;;;;;;;7.05;6.35;;;14.30;99.90;;;;;;5013775;28;20160;-41
2022/09/26 07:58:26;;;;;;;6.28;5.28;;;13.90;99.90;;;;;;5014033;28;20075;-46
2022/09/26 08:00:52;;;;;;;11.27;6.50;;;13.70;99.90;;;;;;5014193;28;20104;-47
2022/09/26 08:03:19;;;;;;;8.77;5.93;;;13.50;99.90;;;;;;5013820;28;20156;-45
2022/09/26 08:05:44;;;;;;;9.80;5.88;;;13.40;99.90;;;;;;5014270;28;20030;-44
2022/09/26 08:08:10;;;;;;;6.97;5.85;;;13.30;99.90;;;;;;5014223;28;20029;-48
2022/09/26 08:10:36;;;;;;;6.05;5.45;;;13.30;99.90;;;;;;5014015;28;20021;-40
2022/09/26 08:13:01;;;;;;;9.32;5.53;;;13.20;99.90;;;;;;5013493;28;20148;-43
2022/09/26 08:15:27;;;;;;;7.20;5.85;;;13.30;99.90;;;;;;5013871;28;20026;-47
2022/09/26 08:17:53;;;;;;;11.60;5.95;;;13.40;99.90;;;;;;5013459;28;20030;-46
2022/09/26 08:20:18;;;;;;;10.93;5.55;;;13.50;99.90;;;;;;5013038;28;20555;-43
2022/09/26 08:22:44;;;;;;;10.27;4.88;;;13.60;99.90;;;;;;5013639;28;20041;-43
2022/09/26 08:25:09;;;;;;;8.25;4.80;;;13.70;99.90;;;;;;5013522;28;20048;-45
2022/09/26 08:27:35;;;;;;;7.90;4.63;;;13.80;99.90;;;;;;5013779;28;20021;-44
2022/09/26 08:30:03;;;;;;;7.15;4.97;;;13.70;99.90;;;;;;5013656;28;20027;-42
2022/09/26 08:32:31;;;;;;;7.22;5.00;;;13.60;99.90;;;;;;5013246;28;20105;-43
2022/09/26 08:34:56;;;;;;;5.25;4.75;;;13.70;99.90;;;;;;5013337;28;20038;-44
2022/09/26 08:37:26;;;;;;;9.05;4.95;;;13.70;99.90;;;;;;5013557;28;20405;-44
2022/09/26 08:39:52;;;;;;;7.18;5.55;;;13.70;99.90;;;;;;5013270;28;20512;-44
2022/09/26 08:42:33;;;;;;;10.75;3.92;;;13.50;99.90;;;;;;5013277;28;20034;-42
2022/09/26 08:48:49;;;;;;;10.50;4.10;;;13.40;99.90;;;;;;5013671;28;20077;-43
2022/09/26 08:51:34;;;;;;;8.75;4.70;;;13.40;99.90;;;;;;5013626;28;20032;-46
2022/09/26 08:54:20;;;;;;;;;;;13.50;99.90;;;;;;5013625;28;20037;-43
2022/09/26 08:56:50;;;;;;;7.32;3.65;;;13.50;99.90;;;;;;5002353;28;20412;-43
2022/09/26 08:59:27;;;;;;;7.38;4.55;;;13.40;99.90;;;;;;5012922;28;20041;-41
2022/09/26 09:01:57;;;;;;;8.90;4.05;;;13.40;99.90;;;;;;5013037;28;20032;-45
2022/09/26 09:04:40;;;;;;;7.90;4.30;;;13.50;99.90;;;;;;5012958;28;20113;-43
2022/09/26 09:07:35;;;;;;;7.30;4.50;;;13.70;99.90;;;;;;5012709;28;20066;-46
2022/09/26 09:10:06;;;;;;;7.78;2.92;;;14.60;99.90;;;;;;5004012;28;20560;-44
2022/09/26 09:12:38;;;;;;;6.13;3.47;;;15.30;99.90;;;;;;5012560;28;20025;-47
2022/09/26 09:15:32;;;;;;;10.25;2.95;;;15.60;99.90;;;;;;5012616;28;20105;-46
2022/09/26 09:18:23;;;;;;;4.57;2.60;;;15.50;99.90;;;;;;5012412;28;20087;-44
2022/09/26 09:21:15;;;;;;;7.25;3.30;;;15.10;99.90;;;;;;5012446;28;20030;-44
2022/09/26 09:23:50;;;;;;;7.95;2.83;;;14.90;99.90;;;;;;5012202;28;20482;-43
2022/09/26 09:26:25;;;;;;;9.60;4.60;;;15.10;99.90;;;;;;5012364;28;20393;-43
2022/09/26 09:28:56;;;;;;;4.70;2.40;;;15.20;99.90;;;;;;5012364;28;20022;-45
2022/09/26 09:31:27;;;;;;;3.60;2.60;;;15.50;99.90;;;;;;5011881;28;20042;-43
2022/09/26 09:33:59;;;;;;;4.45;2.13;;;15.80;99.90;;;;;;5011645;28;20026;-45
2022/09/26 09:36:33;;;;;;;6.88;2.30;;;15.80;99.90;;;;;;5012302;28;20029;-50
2022/09/26 09:39:04;;;;;;;4.47;2.53;;;16.00;99.90;;;;;;5012065;28;20044;-41
2022/09/26 09:41:34;;;;;;;8.07;2.67;;;15.80;99.90;;;;;;5012461;28;20037;-41
2022/09/26 09:44:04;;;;;;;7.32;2.60;;;15.80;99.90;;;;;;5012100;28;20458;-44
2022/09/26 09:46:39;;;;;;;9.23;2.63;;;15.70;99.90;;;;;;5012147;28;20029;-44
2022/09/26 09:49:08;;;;;;;8.02;2.50;;;15.60;99.90;;;;;;5012010;28;20033;-47
2022/09/26 09:51:45;;;;;;;3.70;2.20;;;15.60;99.90;;;;;;5012063;28;20433;-45
2022/09/26 09:54:33;;;;;;;2.83;1.85;;;15.40;99.90;;;;;;5011863;28;20092;-46
2022/09/26 09:57:08;;;;;;;6.15;2.63;;;15.20;99.90;;;;;;5011693;28;20401;-43
2022/09/26 09:59:48;;;;;;;3.80;2.20;;;14.90;99.90;;;;;;5011896;28;20018;-49
2022/09/26 10:02:28;;;;;;;4.00;2.08;;;14.80;99.90;;;;;;5011635;28;20268;-43
2022/09/26 10:05:17;;;;;;;3.80;2.28;;;14.70;99.90;;;;;;5011717;28;20494;-47
2022/09/26 10:07:43;;;;;;;3.33;1.83;;;14.70;99.90;;;;;;5011872;28;20398;-42
2022/09/26 10:10:19;;;;;;;2.15;1.77;;;15.00;99.90;;;;;;5011892;28;20029;-45
2022/09/26 10:12:48;;;;;;;2.33;1.50;;;15.70;99.90;;;;;;5011683;28;20022;-43
2022/09/26 10:15:21;;;;;;;5.70;1.60;;;16.30;99.90;;;;;;5011537;28;20030;-45
2022/09/26 10:18:14;;;;;;;6.22;1.55;;;16.80;99.90;;;;;;5011707;28;20030;-43
2022/09/26 10:20:52;;;;;;;3.70;1.40;;;17.00;99.90;;;;;;5011766;28;20022;-45
2022/09/26 10:23:39;;;;;;;4.72;3.95;;;17.00;99.90;;;;;;5011246;28;20392;-45
2022/09/26 10:26:07;;;;;;;20.90;12.77;;;16.90;99.90;;;;;;5011267;28;20057;-47
2022/09/26 10:28:48;;;;;;;3.53;1.67;;;16.60;99.90;;;;;;5011540;28;20101;-45
2022/09/26 10:31:23;;;;;;;4.60;1.50;;;16.30;99.90;;;;;;5011416;28;20018;-45
2022/09/26 10:33:58;;;;;;;4.30;1.77;;;16.00;99.90;;;;;;5011126;28;20378;-46
2022/09/26 10:36:39;;;;;;;3.63;1.30;;;15.80;99.90;;;;;;5011465;28;20034;-44
2022/09/26 10:42:01;;;;;;;3.67;1.67;;;15.40;99.90;;;;;;5011066;28;20069;-48
2022/09/26 10:44:31;;;;;;;3.88;2.15;;;15.20;99.90;;;;;;5014095;28;20315;-42
2022/09/26 10:46:58;;;;;;;3.55;2.05;;;15.20;99.90;;;;;;5015118;28;20030;-42
2022/09/26 10:49:54;;;;;;;4.35;1.90;;;15.20;99.90;;;;;;5015476;28;20467;-48
2022/09/26 10:52:33;;;;;;;1.67;1.58;;;15.20;99.90;;;;;;5014681;28;20030;-44
2022/09/26 10:55:16;;;;;;;6.50;2.00;;;15.40;99.90;;;;;;5014557;28;20417;-46
2022/09/26 10:57:48;;;;;;;2.13;1.73;;;15.70;99.90;;;;;;5015489;28;20022;-44
2022/09/26 11:00:32;;;;;;;1.60;1.40;;;15.90;99.90;;;;;;5015159;28;20097;-46
2022/09/26 11:02:58;;;;;;;3.70;2.28;;;16.00;99.90;;;;;;5013729;28;20109;-41
2022/09/26 11:08:09;;;;;;;4.15;1.70;;;15.90;99.90;;;;;;5015334;28;20048;-45
2022/09/26 11:10:40;;;;;;;1.48;1.38;;;15.90;99.90;;;;;;5015037;28;20030;-43
2022/09/26 11:13:17;;;;;;;3.20;1.63;;;15.90;99.90;;;;;;5014843;28;20319;-46
2022/09/26 11:16:07;;;;;;;3.80;1.80;;;16.00;99.90;;;;;;5014762;28;20022;-45
2022/09/26 11:19:00;;;;;;;2.20;1.50;;;16.10;99.90;;;;;;5014883;28;20030;-42
2022/09/26 11:22:03;;;;;;;2.60;1.70;;;16.10;99.90;;;;;;5014970;28;20301;-43
2022/09/26 11:24:56;;;;;;;3.70;1.63;;;15.90;99.90;;;;;;5014794;28;20030;-43
2022/09/26 11:27:42;;;;;;;2.78;1.40;;;15.90;99.90;;;;;;5013698;28;20032;-46
2022/09/26 11:30:13;;;;;;;;;;;15.90;99.90;;;;;;5015066;28;20026;-42
2022/09/26 11:32:46;;;;;;;5.18;1.55;;;15.90;99.90;;;;;;5014404;28;19905;-46
2022/09/26 11:35:20;;;;;;;3.78;1.77;;;15.90;99.90;;;;;;5014445;28;20448;-44
2022/09/26 11:38:37;;;;;;;6.50;1.93;;;15.90;99.90;;;;;;5014598;28;20080;-42
2022/09/26 11:41:40;;;;;;;2.28;1.55;;;15.90;99.90;;;;;;4934581;29;20302;-43
2022/09/26 11:44:18;;;;;;;3.50;2.20;;;15.90;99.90;;;;;;4934270;29;20495;-42
2022/09/26 11:47:01;;;;;;;6.07;1.88;;;15.90;99.90;;;;;;5005746;28;20054;-43
2022/09/26 11:49:58;;;;;;;3.55;1.95;;;15.90;99.90;;;;;;5013274;28;20461;-43
2022/09/26 11:53:03;;;;;;;3.10;1.65;;;16.00;99.90;;;;;;5013854;28;20030;-45
2022/09/26 11:56:00;;;;;;;6.53;1.77;;;16.10;99.90;;;;;;5013251;28;20737;-43
2022/09/26 11:58:40;;;;;;;2.60;1.48;;;16.00;99.90;;;;;;4979723;28;20038;-48
2022/09/26 12:01:19;;;;;;;3.47;1.70;;;16.00;99.90;;;;;;5014164;28;20432;-43
2022/09/26 12:04:26;;;;;;;5.50;1.50;;;15.90;99.90;;;;;;5013757;28;20030;-44
2022/09/26 12:07:06;;;;;;;14.13;10.23;;;16.00;99.90;;;;;;5014132;28;20101;-44
2022/09/26 12:10:03;;;;;;;4.03;3.08;;;16.10;99.90;;;;;;5014093;28;20018;-44
2022/09/26 12:12:56;;;;;;;3.65;1.88;;;16.00;99.90;;;;;;5012997;28;20105;-44
2022/09/26 12:15:53;;;;;;;3.33;1.85;;;16.00;99.90;;;;;;5013941;28;20036;-42
2022/09/26 12:18:42;;;;;;;1.95;1.58;;;16.00;99.90;;;;;;5013647;28;20342;-44
2022/09/26 12:21:24;;;;;;;2.30;1.50;;;16.00;99.90;;;;;;5012744;28;20087;-46
2022/09/26 12:23:58;;;;;;;3.75;1.70;;;16.00;99.90;;;;;;5012838;28;20554;-44
2022/09/26 12:26:43;;;;;;;2.03;1.60;;;16.10;99.90;;;;;;5011586;28;20048;-44
2022/09/26 12:29:37;;;;;;;1.60;1.30;;;16.10;99.90;;;;;;5012223;28;20013;-46
2022/09/26 12:32:46;;;;;;;4.63;1.40;;;16.20;99.90;;;;;;5011456;28;20026;-45
2022/09/26 12:35:41;;;;;;;2.55;1.77;;;16.10;99.90;;;;;;5012481;28;20107;-43
2022/09/26 12:38:31;;;;;;;10.70;2.25;;;16.10;99.90;;;;;;5011958;28;20101;-45
2022/09/26 12:41:03;;;;;;;2.85;1.73;;;15.90;99.90;;;;;;5009622;28;20508;-43
2022/09/26 12:44:06;;;;;;;6.53;1.60;;;15.80;99.90;;;;;;5012556;28;20489;-43
2022/09/26 12:46:58;;;;;;;3.17;1.30;;;15.70;99.90;;;;;;4993145;28;20046;-48
2022/09/26 12:49:43;;;;;;;4.65;1.98;;;15.60;99.90;;;;;;5010346;28;20508;-44
2022/09/26 12:52:44;;;;;;;1.97;1.70;;;15.50;99.90;;;;;;5008997;28;20022;-43
2022/09/26 12:55:47;;;;;;;3.72;1.98;;;15.50;99.90;;;;;;5000958;28;20045;-49
2022/09/26 12:58:35;;;;;;;1.30;1.20;;;15.40;99.90;;;;;;5011836;28;20034;-43
2022/09/26 13:01:42;;;;;;;1.75;1.40;;;15.30;99.90;;;;;;5011605;28;20064;-44
2022/09/26 13:04:35;;;;;;;1.63;1.20;;;15.40;99.90;;;;;;5011057;28;20037;-43
2022/09/26 13:07:09;;;;;;;3.80;1.83;;;15.40;99.90;;;;;;5010262;28;20080;-43
2022/09/26 13:09:43;;;;;;;2.33;1.30;;;15.40;99.90;;;;;;5012500;28;20501;-43
2022/09/26 13:12:44;;;;;;;4.70;1.10;;;15.40;99.90;;;;;;5011913;28;20038;-46
2022/09/26 13:15:33;;;;;;;2.15;1.20;;;15.40;99.90;;;;;;5011352;28;20022;-43
2022/09/26 13:18:12;;;;;;;6.38;1.40;;;15.40;99.90;;;;;;5009986;28;20030;-42
2022/09/26 13:20:42;;;;;;;7.35;1.70;;;15.50;99.90;;;;;;5009333;28;20018;-46
2022/09/26 13:23:18;;;;;;;1.98;1.38;;;15.50;99.90;;;;;;5010402;28;20026;-44
2022/09/26 13:25:49;;;;;;;4.13;1.40;;;15.50;99.90;;;;;;5010563;28;20367;-45
2022/09/26 13:28:14;;;;;;;2.95;1.25;;;15.50;99.90;;;;;;5012347;28;20108;-47
2022/09/26 13:30:46;;;;;;;3.60;1.40;;;15.40;99.90;;;;;;5012153;28;20077;-43
2022/09/26 13:33:32;;;;;;;3.65;1.73;;;15.30;99.90;;;;;;5012255;28;20397;-51